sensor_id;sensor_type;location;lat;lon;timestamp;P1;durP1;ratioP1;P2;durP2;ratioP2
15096;SDS011;7649;52.084;7.478;2023-04-24T00:01:50;2.37;;;2.17;;
15096;SDS011;7649;52.084;7.478;2023-04-24T00:04:19;2.30;;;2.20;;
15096;SDS011;7649;52.084;7.478;2023-04-24T00:06:47;2.20;;;2.10;;
15096;SDS011;7649;52.084;7.478;2023-04-24T00:09:20;2.70;;;2.50;;
15096;SDS011;7649;52.084;7.478;2023-04-24T00:11:48;2.53;;;2.43;;
15096;SDS011;7649;52.084;7.478;2023-04-24T00:14:16;4.00;;;2.70;;
15096;SDS011;7649;52.084;7.478;2023-04-24T00:16:46;2.80;;;2.60;;
15096;SDS011;7649;52.084;7.478;2023-04-24T00:19:14;3.10;;;2.90;;
15096;SDS011;7649;52.084;7.478;2023-04-24T00:21:42;2.90;;;2.70;;
15096;SDS011;7649;52.084;7.478;2023-04-24T00:24:11;2.93;;;2.63;;
15096;SDS011;7649;52.084;7.478;2023-04-24T00:26:39;3.20;;;2.90;;
15096;SDS011;7649;52.084;7.478;2023-04-24T00:29:07;2.97;;;2.77;;
15096;SDS011;7649;52.084;7.478;2023-04-24T00:31:35;4.90;;;2.90;;
15096;SDS011;7649;52.084;7.478;2023-04-24T00:34:05;2.97;;;2.70;;
15096;SDS011;7649;52.084;7.478;2023-04-24T00:36:33;3.33;;;3.03;;
15096;SDS011;7649;52.084;7.478;2023-04-24T00:39:02;3.30;;;3.00;;
15096;SDS011;7649;52.084;7.478;2023-04-24T00:41:30;3.03;;;2.83;;
15096;SDS011;7649;52.084;7.478;2023-04-24T00:43:58;2.90;;;2.63;;
15096;SDS011;7649;52.084;7.478;2023-04-24T00:46:26;2.90;;;2.60;;
15096;SDS011;7649;52.084;7.478;2023-04-24T00:48:55;3.80;;;2.93;;
15096;SDS011;7649;52.084;7.478;2023-04-24T00:51:25;3.57;;;2.70;;
15096;SDS011;7649;52.084;7.478;2023-04-24T00:53:53;3.47;;;3.17;;
15096;SDS011;7649;52.084;7.478;2023-04-24T00:56:22;3.17;;;2.80;;
15096;SDS011;7649;52.084;7.478;2023-04-24T00:58:50;6.23;;;2.90;;
15096;SDS011;7649;52.084;7.478;2023-04-24T01:01:18;4.33;;;2.90;;
15096;SDS011;7649;52.084;7.478;2023-04-24T01:03:48;3.37;;;2.80;;
15096;SDS011;7649;52.084;7.478;2023-04-24T01:06:17;3.10;;;2.80;;
15096;SDS011;7649;52.084;7.478;2023-04-24T01:08:47;2.90;;;2.67;;
15096;SDS011;7649;52.084;7.478;2023-04-24T01:11:15;3.13;;;2.90;;
15096;SDS011;7649;52.084;7.478;2023-04-24T01:13:44;3.27;;;2.70;;
15096;SDS011;7649;52.084;7.478;2023-04-24T01:16:13;2.80;;;2.57;;
15096;SDS011;7649;52.084;7.478;2023-04-24T01:18:41;3.17;;;2.90;;
15096;SDS011;7649;52.084;7.478;2023-04-24T01:21:09;2.67;;;2.47;;
15096;SDS011;7649;52.084;7.478;2023-04-24T01:23:42;2.70;;;2.50;;
15096;SDS011;7649;52.084;7.478;2023-04-24T01:26:11;2.67;;;2.47;;
15096;SDS011;7649;52.084;7.478;2023-04-24T01:28:39;3.03;;;2.70;;
15096;SDS011;7649;52.084;7.478;2023-04-24T01:31:07;3.10;;;2.43;;
15096;SDS011;7649;52.084;7.478;2023-04-24T01:33:36;2.93;;;2.70;;
15096;SDS011;7649;52.084;7.478;2023-04-24T01:36:04;2.87;;;2.67;;
15096;SDS011;7649;52.084;7.478;2023-04-24T01:38:32;2.70;;;2.50;;
15096;SDS011;7649;52.084;7.478;2023-04-24T01:41:02;2.97;;;2.67;;
15096;SDS011;7649;52.084;7.478;2023-04-24T01:43:30;4.77;;;2.87;;
15096;SDS011;7649;52.084;7.478;2023-04-24T01:45:59;3.30;;;2.60;;
15096;SDS011;7649;52.084;7.478;2023-04-24T01:48:27;3.10;;;2.60;;
15096;SDS011;7649;52.084;7.478;2023-04-24T01:50:56;2.87;;;2.63;;
15096;SDS011;7649;52.084;7.478;2023-04-24T01:53:24;3.57;;;2.80;;
15096;SDS011;7649;52.084;7.478;2023-04-24T01:55:52;3.43;;;3.13;;
15096;SDS011;7649;52.084;7.478;2023-04-24T01:58:22;2.93;;;2.73;;
15096;SDS011;7649;52.084;7.478;2023-04-24T02:00:55;2.83;;;2.63;;
15096;SDS011;7649;52.084;7.478;2023-04-24T02:03:25;3.60;;;3.00;;
15096;SDS011;7649;52.084;7.478;2023-04-24T02:05:53;3.77;;;3.47;;
15096;SDS011;7649;52.084;7.478;2023-04-24T02:08:22;3.50;;;3.20;;
15096;SDS011;7649;52.084;7.478;2023-04-24T02:10:50;3.20;;;3.00;;
15096;SDS011;7649;52.084;7.478;2023-04-24T02:13:18;3.50;;;3.20;;
15096;SDS011;7649;52.084;7.478;2023-04-24T02:15:48;3.60;;;3.23;;
15096;SDS011;7649;52.084;7.478;2023-04-24T02:18:16;4.63;;;3.50;;
15096;SDS011;7649;52.084;7.478;2023-04-24T02:20:45;3.77;;;3.47;;
15096;SDS011;7649;52.084;7.478;2023-04-24T02:23:13;3.57;;;3.27;;
15096;SDS011;7649;52.084;7.478;2023-04-24T02:25:41;3.77;;;3.33;;
15096;SDS011;7649;52.084;7.478;2023-04-24T02:28:09;4.07;;;3.20;;
15096;SDS011;7649;52.084;7.478;2023-04-24T02:30:38;3.23;;;3.03;;
15096;SDS011;7649;52.084;7.478;2023-04-24T02:33:07;3.17;;;2.93;;
15096;SDS011;7649;52.084;7.478;2023-04-24T02:35:35;3.50;;;3.20;;
15096;SDS011;7649;52.084;7.478;2023-04-24T02:38:04;3.20;;;2.90;;
15096;SDS011;7649;52.084;7.478;2023-04-24T02:40:32;3.87;;;3.37;;
15096;SDS011;7649;52.084;7.478;2023-04-24T02:43:00;3.47;;;3.10;;
15096;SDS011;7649;52.084;7.478;2023-04-24T02:45:28;4.07;;;3.73;;
15096;SDS011;7649;52.084;7.478;2023-04-24T02:47:57;4.43;;;3.67;;
15096;SDS011;7649;52.084;7.478;2023-04-24T02:50:27;4.07;;;3.70;;
15096;SDS011;7649;52.084;7.478;2023-04-24T02:52:55;4.00;;;3.70;;
15096;SDS011;7649;52.084;7.478;2023-04-24T02:55:23;4.20;;;3.90;;
15096;SDS011;7649;52.084;7.478;2023-04-24T02:57:52;5.30;;;3.97;;
15096;SDS011;7649;52.084;7.478;2023-04-24T03:00:20;4.63;;;4.23;;
15096;SDS011;7649;52.084;7.478;2023-04-24T03:02:48;6.00;;;4.67;;
15096;SDS011;7649;52.084;7.478;2023-04-24T03:05:17;6.07;;;5.10;;
15096;SDS011;7649;52.084;7.478;2023-04-24T03:10:31;5.57;;;5.07;;
15096;SDS011;7649;52.084;7.478;2023-04-24T03:12:59;5.40;;;4.90;;
15096;SDS011;7649;52.084;7.478;2023-04-24T03:15:27;6.00;;;5.50;;
15096;SDS011;7649;52.084;7.478;2023-04-24T03:17:56;6.03;;;5.43;;
15096;SDS011;7649;52.084;7.478;2023-04-24T03:20:24;7.33;;;6.43;;
15096;SDS011;7649;52.084;7.478;2023-04-24T03:22:52;7.97;;;6.37;;
15096;SDS011;7649;52.084;7.478;2023-04-24T03:25:20;7.67;;;6.93;;
15096;SDS011;7649;52.084;7.478;2023-04-24T03:27:50;7.90;;;7.10;;
15096;SDS011;7649;52.084;7.478;2023-04-24T03:30:20;8.10;;;7.40;;
15096;SDS011;7649;52.084;7.478;2023-04-24T03:32:48;8.80;;;7.90;;
15096;SDS011;7649;52.084;7.478;2023-04-24T03:35:16;8.97;;;8.07;;
15096;SDS011;7649;52.084;7.478;2023-04-24T03:37:45;8.70;;;7.80;;
15096;SDS011;7649;52.084;7.478;2023-04-24T03:40:13;9.53;;;8.63;;
15096;SDS011;7649;52.084;7.478;2023-04-24T03:42:41;10.67;;;8.83;;
15096;SDS011;7649;52.084;7.478;2023-04-24T03:45:11;9.37;;;8.40;;
15096;SDS011;7649;52.084;7.478;2023-04-24T03:47:39;11.00;;;9.13;;
15096;SDS011;7649;52.084;7.478;2023-04-24T03:50:08;11.57;;;10.00;;
15096;SDS011;7649;52.084;7.478;2023-04-24T03:52:38;11.30;;;10.17;;
15096;SDS011;7649;52.084;7.478;2023-04-24T03:55:06;12.10;;;10.50;;
15096;SDS011;7649;52.084;7.478;2023-04-24T03:57:35;12.67;;;11.47;;
15096;SDS011;7649;52.084;7.478;2023-04-24T04:00:03;13.57;;;12.17;;
15096;SDS011;7649;52.084;7.478;2023-04-24T04:02:33;14.30;;;12.90;;
15096;SDS011;7649;52.084;7.478;2023-04-24T04:05:02;14.00;;;12.70;;
15096;SDS011;7649;52.084;7.478;2023-04-24T04:07:32;14.63;;;13.13;;
15096;SDS011;7649;52.084;7.478;2023-04-24T04:10:00;14.20;;;12.57;;
15096;SDS011;7649;52.084;7.478;2023-04-24T04:12:29;14.00;;;12.60;;
15096;SDS011;7649;52.084;7.478;2023-04-24T04:14:58;15.10;;;13.60;;
15096;SDS011;7649;52.084;7.478;2023-04-24T04:17:26;14.77;;;13.37;;
15096;SDS011;7649;52.084;7.478;2023-04-24T04:19:55;15.63;;;14.07;;
15096;SDS011;7649;52.084;7.478;2023-04-24T04:22:24;15.47;;;13.97;;
15096;SDS011;7649;52.084;7.478;2023-04-24T04:24:52;14.63;;;13.10;;
15096;SDS011;7649;52.084;7.478;2023-04-24T04:27:20;14.87;;;13.20;;
15096;SDS011;7649;52.084;7.478;2023-04-24T04:29:48;17.77;;;12.63;;
15096;SDS011;7649;52.084;7.478;2023-04-24T04:32:17;14.40;;;13.00;;
15096;SDS011;7649;52.084;7.478;2023-04-24T04:34:45;14.47;;;12.23;;
15096;SDS011;7649;52.084;7.478;2023-04-24T04:37:17;13.97;;;12.63;;
15096;SDS011;7649;52.084;7.478;2023-04-24T04:39:45;14.97;;;12.17;;
15096;SDS011;7649;52.084;7.478;2023-04-24T04:42:13;14.90;;;12.37;;
15096;SDS011;7649;52.084;7.478;2023-04-24T04:44:41;13.10;;;11.90;;
15096;SDS011;7649;52.084;7.478;2023-04-24T04:47:11;14.13;;;11.80;;
15096;SDS011;7649;52.084;7.478;2023-04-24T04:49:39;15.47;;;11.40;;
15096;SDS011;7649;52.084;7.478;2023-04-24T04:52:08;13.67;;;12.07;;
15096;SDS011;7649;52.084;7.478;2023-04-24T04:54:37;13.97;;;12.53;;
15096;SDS011;7649;52.084;7.478;2023-04-24T04:57:05;13.27;;;11.93;;
15096;SDS011;7649;52.084;7.478;2023-04-24T04:59:34;14.90;;;12.90;;
15096;SDS011;7649;52.084;7.478;2023-04-24T05:02:03;14.50;;;12.87;;
15096;SDS011;7649;52.084;7.478;2023-04-24T05:04:31;13.50;;;12.23;;
15096;SDS011;7649;52.084;7.478;2023-04-24T05:07:00;14.10;;;12.70;;
15096;SDS011;7649;52.084;7.478;2023-04-24T05:09:29;14.40;;;12.93;;
15096;SDS011;7649;52.084;7.478;2023-04-24T05:11:58;15.40;;;13.60;;
15096;SDS011;7649;52.084;7.478;2023-04-24T05:14:28;14.33;;;12.93;;
15096;SDS011;7649;52.084;7.478;2023-04-24T05:16:56;17.37;;;14.27;;
15096;SDS011;7649;52.084;7.478;2023-04-24T05:19:26;16.37;;;14.60;;
15096;SDS011;7649;52.084;7.478;2023-04-24T05:21:54;16.80;;;14.93;;
15096;SDS011;7649;52.084;7.478;2023-04-24T05:24:22;16.63;;;14.87;;
15096;SDS011;7649;52.084;7.478;2023-04-24T05:26:51;17.63;;;15.83;;
15096;SDS011;7649;52.084;7.478;2023-04-24T05:29:20;17.37;;;14.97;;
15096;SDS011;7649;52.084;7.478;2023-04-24T05:31:49;18.10;;;16.20;;
15096;SDS011;7649;52.084;7.478;2023-04-24T05:34:17;19.20;;;17.20;;
15096;SDS011;7649;52.084;7.478;2023-04-24T05:36:45;18.00;;;16.20;;
15096;SDS011;7649;52.084;7.478;2023-04-24T05:39:14;17.57;;;15.77;;
15096;SDS011;7649;52.084;7.478;2023-04-24T05:41:42;19.27;;;17.30;;
15096;SDS011;7649;52.084;7.478;2023-04-24T05:44:10;20.13;;;15.57;;
15096;SDS011;7649;52.084;7.478;2023-04-24T05:49:38;17.40;;;15.57;;
15096;SDS011;7649;52.084;7.478;2023-04-24T05:52:07;19.03;;;15.53;;
15096;SDS011;7649;52.084;7.478;2023-04-24T05:54:36;19.17;;;15.63;;
15096;SDS011;7649;52.084;7.478;2023-04-24T05:57:04;19.30;;;14.67;;
15096;SDS011;7649;52.084;7.478;2023-04-24T05:59:33;20.33;;;14.57;;
15096;SDS011;7649;52.084;7.478;2023-04-24T06:02:02;16.83;;;15.03;;
15096;SDS011;7649;52.084;7.478;2023-04-24T06:04:30;17.73;;;14.33;;
15096;SDS011;7649;52.084;7.478;2023-04-24T06:07:00;16.43;;;14.60;;
15096;SDS011;7649;52.084;7.478;2023-04-24T06:09:29;15.20;;;13.63;;
15096;SDS011;7649;52.084;7.478;2023-04-24T06:11:57;18.50;;;14.03;;
15096;SDS011;7649;52.084;7.478;2023-04-24T06:14:26;18.27;;;14.17;;
15096;SDS011;7649;52.084;7.478;2023-04-24T06:16:54;16.77;;;14.30;;
15096;SDS011;7649;52.084;7.478;2023-04-24T06:19:23;16.57;;;14.70;;
15096;SDS011;7649;52.084;7.478;2023-04-24T06:21:51;15.30;;;13.83;;
15096;SDS011;7649;52.084;7.478;2023-04-24T06:24:21;16.43;;;13.93;;
15096;SDS011;7649;52.084;7.478;2023-04-24T06:26:49;15.03;;;13.60;;
15096;SDS011;7649;52.084;7.478;2023-04-24T06:29:17;14.80;;;13.40;;
15096;SDS011;7649;52.084;7.478;2023-04-24T06:31:46;15.17;;;13.37;;
15096;SDS011;7649;52.084;7.478;2023-04-24T06:34:14;14.57;;;12.97;;
15096;SDS011;7649;52.084;7.478;2023-04-24T06:36:42;14.63;;;12.73;;
15096;SDS011;7649;52.084;7.478;2023-04-24T06:39:12;15.57;;;13.67;;
15096;SDS011;7649;52.084;7.478;2023-04-24T06:41:42;14.13;;;12.70;;
15096;SDS011;7649;52.084;7.478;2023-04-24T06:44:10;12.70;;;11.40;;
15096;SDS011;7649;52.084;7.478;2023-04-24T06:46:41;13.10;;;11.80;;
15096;SDS011;7649;52.084;7.478;2023-04-24T06:49:10;13.67;;;11.70;;
15096;SDS011;7649;52.084;7.478;2023-04-24T06:51:38;11.33;;;10.23;;
15096;SDS011;7649;52.084;7.478;2023-04-24T06:54:06;10.93;;;9.70;;
15096;SDS011;7649;52.084;7.478;2023-04-24T06:56:35;11.07;;;10.07;;
15096;SDS011;7649;52.084;7.478;2023-04-24T06:59:05;9.70;;;8.80;;
15096;SDS011;7649;52.084;7.478;2023-04-24T07:01:33;8.70;;;7.90;;
15096;SDS011;7649;52.084;7.478;2023-04-24T07:04:01;8.60;;;7.53;;
15096;SDS011;7649;52.084;7.478;2023-04-24T07:06:30;8.73;;;7.93;;
15096;SDS011;7649;52.084;7.478;2023-04-24T07:08:58;7.73;;;7.03;;
15096;SDS011;7649;52.084;7.478;2023-04-24T07:11:27;8.00;;;7.20;;
15096;SDS011;7649;52.084;7.478;2023-04-24T07:13:56;9.97;;;7.57;;
15096;SDS011;7649;52.084;7.478;2023-04-24T07:16:26;8.53;;;7.63;;
15096;SDS011;7649;52.084;7.478;2023-04-24T07:18:55;8.90;;;8.00;;
15096;SDS011;7649;52.084;7.478;2023-04-24T07:21:23;9.47;;;8.37;;
15096;SDS011;7649;52.084;7.478;2023-04-24T07:23:51;11.03;;;9.73;;
15096;SDS011;7649;52.084;7.478;2023-04-24T07:26:20;10.97;;;9.90;;
15096;SDS011;7649;52.084;7.478;2023-04-24T07:28:48;12.13;;;11.03;;
15096;SDS011;7649;52.084;7.478;2023-04-24T07:31:16;10.27;;;9.27;;
15096;SDS011;7649;52.084;7.478;2023-04-24T07:33:46;13.27;;;11.47;;
15096;SDS011;7649;52.084;7.478;2023-04-24T07:36:14;13.10;;;11.83;;
15096;SDS011;7649;52.084;7.478;2023-04-24T07:38:45;13.27;;;12.07;;
15096;SDS011;7649;52.084;7.478;2023-04-24T07:41:13;12.70;;;11.50;;
15096;SDS011;7649;52.084;7.478;2023-04-24T07:43:42;13.00;;;11.80;;
15096;SDS011;7649;52.084;7.478;2023-04-24T07:46:10;12.97;;;11.73;;
15096;SDS011;7649;52.084;7.478;2023-04-24T07:48:38;12.33;;;11.33;;
15096;SDS011;7649;52.084;7.478;2023-04-24T07:51:08;11.20;;;10.20;;
15096;SDS011;7649;52.084;7.478;2023-04-24T07:53:38;11.50;;;10.40;;
15096;SDS011;7649;52.084;7.478;2023-04-24T07:56:06;10.93;;;9.93;;
15096;SDS011;7649;52.084;7.478;2023-04-24T07:58:35;12.43;;;10.10;;
15096;SDS011;7649;52.084;7.478;2023-04-24T08:01:03;10.80;;;9.90;;
15096;SDS011;7649;52.084;7.478;2023-04-24T08:03:31;10.17;;;9.27;;
15096;SDS011;7649;52.084;7.478;2023-04-24T08:06:00;9.60;;;8.80;;
15096;SDS011;7649;52.084;7.478;2023-04-24T08:08:29;9.57;;;8.77;;
15096;SDS011;7649;52.084;7.478;2023-04-24T08:10:58;10.50;;;9.60;;
15096;SDS011;7649;52.084;7.478;2023-04-24T08:13:26;9.77;;;8.77;;
15096;SDS011;7649;52.084;7.478;2023-04-24T08:15:56;10.23;;;9.33;;
15096;SDS011;7649;52.084;7.478;2023-04-24T08:18:24;9.77;;;9.00;;
15096;SDS011;7649;52.084;7.478;2023-04-24T08:20:52;9.80;;;9.00;;
15096;SDS011;7649;52.084;7.478;2023-04-24T08:23:21;8.93;;;8.07;;
15096;SDS011;7649;52.084;7.478;2023-04-24T08:25:50;9.47;;;8.67;;
15096;SDS011;7649;52.084;7.478;2023-04-24T08:28:18;9.43;;;8.53;;
15096;SDS011;7649;52.084;7.478;2023-04-24T08:30:47;9.83;;;8.80;;
15096;SDS011;7649;52.084;7.478;2023-04-24T08:33:20;9.20;;;8.30;;
15096;SDS011;7649;52.084;7.478;2023-04-24T08:35:48;9.03;;;8.13;;
15096;SDS011;7649;52.084;7.478;2023-04-24T08:38:17;9.43;;;8.60;;
15096;SDS011;7649;52.084;7.478;2023-04-24T08:40:45;8.57;;;7.87;;
15096;SDS011;7649;52.084;7.478;2023-04-24T08:43:17;8.33;;;7.53;;
15096;SDS011;7649;52.084;7.478;2023-04-24T08:45:45;7.43;;;6.83;;
15096;SDS011;7649;52.084;7.478;2023-04-24T08:48:13;7.10;;;6.60;;
15096;SDS011;7649;52.084;7.478;2023-04-24T08:50:56;7.67;;;6.97;;
15096;SDS011;7649;52.084;7.478;2023-04-24T08:53:25;7.47;;;6.53;;
15096;SDS011;7649;52.084;7.478;2023-04-24T08:55:54;6.73;;;6.13;;
15096;SDS011;7649;52.084;7.478;2023-04-24T08:58:25;6.03;;;5.53;;
15096;SDS011;7649;52.084;7.478;2023-04-24T09:00:54;6.17;;;5.67;;
15096;SDS011;7649;52.084;7.478;2023-04-24T09:03:22;8.77;;;5.17;;
15096;SDS011;7649;52.084;7.478;2023-04-24T09:05:51;5.87;;;5.17;;
15096;SDS011;7649;52.084;7.478;2023-04-24T09:08:20;5.10;;;4.63;;
15096;SDS011;7649;52.084;7.478;2023-04-24T09:10:51;5.93;;;5.43;;
15096;SDS011;7649;52.084;7.478;2023-04-24T09:13:20;5.23;;;4.80;;
15096;SDS011;7649;52.084;7.478;2023-04-24T09:15:49;5.17;;;4.77;;
15096;SDS011;7649;52.084;7.478;2023-04-24T09:18:18;5.17;;;4.77;;
15096;SDS011;7649;52.084;7.478;2023-04-24T09:20:56;5.40;;;4.77;;
15096;SDS011;7649;52.084;7.478;2023-04-24T09:23:25;5.20;;;4.73;;
15096;SDS011;7649;52.084;7.478;2023-04-24T09:25:54;4.60;;;4.30;;
15096;SDS011;7649;52.084;7.478;2023-04-24T09:28:26;5.20;;;4.70;;
15096;SDS011;7649;52.084;7.478;2023-04-24T09:31:06;5.00;;;4.60;;
15096;SDS011;7649;52.084;7.478;2023-04-24T09:33:35;5.20;;;4.70;;
15096;SDS011;7649;52.084;7.478;2023-04-24T09:36:03;5.57;;;5.17;;
15096;SDS011;7649;52.084;7.478;2023-04-24T09:38:33;5.80;;;5.30;;
15096;SDS011;7649;52.084;7.478;2023-04-24T09:41:01;5.90;;;5.33;;
15096;SDS011;7649;52.084;7.478;2023-04-24T09:43:30;5.50;;;4.73;;
15096;SDS011;7649;52.084;7.478;2023-04-24T09:45:58;4.90;;;4.50;;
15096;SDS011;7649;52.084;7.478;2023-04-24T09:48:32;5.53;;;5.03;;
15096;SDS011;7649;52.084;7.478;2023-04-24T09:51:01;5.73;;;4.77;;
15096;SDS011;7649;52.084;7.478;2023-04-24T09:53:30;5.03;;;4.53;;
15096;SDS011;7649;52.084;7.478;2023-04-24T09:56:01;4.40;;;4.03;;
15096;SDS011;7649;52.084;7.478;2023-04-24T09:58:30;4.57;;;4.20;;
15096;SDS011;7649;52.084;7.478;2023-04-24T10:00:58;5.33;;;4.80;;
15096;SDS011;7649;52.084;7.478;2023-04-24T10:03:27;3.77;;;3.47;;
15096;SDS011;7649;52.084;7.478;2023-04-24T10:05:59;3.77;;;3.53;;
15096;SDS011;7649;52.084;7.478;2023-04-24T10:08:32;4.30;;;3.80;;
15096;SDS011;7649;52.084;7.478;2023-04-24T10:11:01;4.47;;;4.07;;
15096;SDS011;7649;52.084;7.478;2023-04-24T10:13:29;4.87;;;3.90;;
15096;SDS011;7649;52.084;7.478;2023-04-24T10:15:58;6.47;;;4.23;;
15096;SDS011;7649;52.084;7.478;2023-04-24T10:18:27;6.50;;;5.03;;
15096;SDS011;7649;52.084;7.478;2023-04-24T10:20:56;4.13;;;3.80;;
15096;SDS011;7649;52.084;7.478;2023-04-24T10:23:25;4.50;;;3.87;;
15096;SDS011;7649;52.084;7.478;2023-04-24T10:25:54;4.37;;;3.97;;
15096;SDS011;7649;52.084;7.478;2023-04-24T10:28:22;3.93;;;3.47;;
15096;SDS011;7649;52.084;7.478;2023-04-24T10:30:52;4.50;;;3.60;;
15096;SDS011;7649;52.084;7.478;2023-04-24T10:33:22;3.30;;;3.00;;
15096;SDS011;7649;52.084;7.478;2023-04-24T10:35:51;3.23;;;2.93;;
15096;SDS011;7649;52.084;7.478;2023-04-24T10:38:21;4.20;;;3.47;;
15096;SDS011;7649;52.084;7.478;2023-04-24T10:40:52;5.17;;;4.67;;
15096;SDS011;7649;52.084;7.478;2023-04-24T10:43:25;6.93;;;5.37;;
15096;SDS011;7649;52.084;7.478;2023-04-24T10:46:03;6.23;;;5.60;;
15096;SDS011;7649;52.084;7.478;2023-04-24T10:48:32;5.90;;;5.30;;
15096;SDS011;7649;52.084;7.478;2023-04-24T10:51:01;7.37;;;6.10;;
15096;SDS011;7649;52.084;7.478;2023-04-24T10:53:30;6.53;;;5.90;;
15096;SDS011;7649;52.084;7.478;2023-04-24T10:56:02;6.67;;;5.97;;
15096;SDS011;7649;52.084;7.478;2023-04-24T10:58:38;6.47;;;5.83;;
15096;SDS011;7649;52.084;7.478;2023-04-24T11:01:06;10.63;;;6.47;;
15096;SDS011;7649;52.084;7.478;2023-04-24T11:06:05;8.43;;;6.47;;
15096;SDS011;7649;52.084;7.478;2023-04-24T11:08:37;7.10;;;5.70;;
15096;SDS011;7649;52.084;7.478;2023-04-24T11:11:11;6.27;;;5.67;;
15096;SDS011;7649;52.084;7.478;2023-04-24T11:16:29;7.13;;;5.40;;
15096;SDS011;7649;52.084;7.478;2023-04-24T11:19:02;7.50;;;5.40;;
15096;SDS011;7649;52.084;7.478;2023-04-24T11:21:31;8.40;;;5.90;;
15096;SDS011;7649;52.084;7.478;2023-04-24T11:26:44;7.37;;;5.83;;
15096;SDS011;7649;52.084;7.478;2023-04-24T11:29:13;6.77;;;5.80;;
15096;SDS011;7649;52.084;7.478;2023-04-24T11:31:45;7.03;;;5.40;;
15096;SDS011;7649;52.084;7.478;2023-04-24T11:34:17;6.67;;;4.93;;
15096;SDS011;7649;52.084;7.478;2023-04-24T11:36:46;8.30;;;5.37;;
15096;SDS011;7649;52.084;7.478;2023-04-24T11:39:14;5.63;;;5.00;;
15096;SDS011;7649;52.084;7.478;2023-04-24T11:41:44;9.20;;;5.67;;
15096;SDS011;7649;52.084;7.478;2023-04-24T11:44:12;5.80;;;5.30;;
15096;SDS011;7649;52.084;7.478;2023-04-24T11:46:41;5.53;;;4.10;;
15096;SDS011;7649;52.084;7.478;2023-04-24T11:49:10;7.13;;;4.47;;
15096;SDS011;7649;52.084;7.478;2023-04-24T11:51:40;9.10;;;4.33;;
15096;SDS011;7649;52.084;7.478;2023-04-24T11:54:18;5.03;;;3.80;;
15096;SDS011;7649;52.084;7.478;2023-04-24T11:56:48;7.87;;;4.50;;
15096;SDS011;7649;52.084;7.478;2023-04-24T11:59:17;6.40;;;4.40;;
15096;SDS011;7649;52.084;7.478;2023-04-24T12:01:45;7.43;;;4.37;;
15096;SDS011;7649;52.084;7.478;2023-04-24T12:04:14;7.83;;;4.63;;
15096;SDS011;7649;52.084;7.478;2023-04-24T12:09:26;4.67;;;3.30;;
15096;SDS011;7649;52.084;7.478;2023-04-24T12:11:56;7.53;;;3.50;;
15096;SDS011;7649;52.084;7.478;2023-04-24T12:14:24;4.17;;;3.10;;
15096;SDS011;7649;52.084;7.478;2023-04-24T12:16:53;6.43;;;3.50;;
15096;SDS011;7649;52.084;7.478;2023-04-24T12:19:21;7.23;;;3.60;;
15096;SDS011;7649;52.084;7.478;2023-04-24T12:21:59;9.13;;;3.80;;
15096;SDS011;7649;52.084;7.478;2023-04-24T12:24:27;10.87;;;4.67;;
15096;SDS011;7649;52.084;7.478;2023-04-24T12:26:58;9.77;;;5.00;;
15096;SDS011;7649;52.084;7.478;2023-04-24T12:29:27;12.37;;;4.97;;
15096;SDS011;7649;52.084;7.478;2023-04-24T12:31:56;9.70;;;4.40;;
15096;SDS011;7649;52.084;7.478;2023-04-24T12:34:24;13.00;;;5.30;;
15096;SDS011;7649;52.084;7.478;2023-04-24T12:36:53;11.77;;;4.90;;
15096;SDS011;7649;52.084;7.478;2023-04-24T12:39:21;9.47;;;4.60;;
15096;SDS011;7649;52.084;7.478;2023-04-24T12:41:55;9.97;;;4.73;;
15096;SDS011;7649;52.084;7.478;2023-04-24T12:44:32;8.20;;;4.37;;
15096;SDS011;7649;52.084;7.478;2023-04-24T12:47:00;9.17;;;5.23;;
15096;SDS011;7649;52.084;7.478;2023-04-24T12:49:29;13.37;;;5.20;;
15096;SDS011;7649;52.084;7.478;2023-04-24T12:51:58;10.10;;;5.00;;
15096;SDS011;7649;52.084;7.478;2023-04-24T12:54:26;8.33;;;4.87;;
15096;SDS011;7649;52.084;7.478;2023-04-24T12:57:00;6.10;;;4.77;;
15096;SDS011;7649;52.084;7.478;2023-04-24T12:59:28;7.23;;;4.13;;
15096;SDS011;7649;52.084;7.478;2023-04-24T13:01:58;10.97;;;4.83;;
15096;SDS011;7649;52.084;7.478;2023-04-24T13:04:26;8.30;;;4.23;;
15096;SDS011;7649;52.084;7.478;2023-04-24T13:06:54;7.77;;;4.13;;
15096;SDS011;7649;52.084;7.478;2023-04-24T13:09:22;10.80;;;4.47;;
15096;SDS011;7649;52.084;7.478;2023-04-24T13:11:51;7.37;;;4.30;;
15096;SDS011;7649;52.084;7.478;2023-04-24T13:14:19;13.07;;;4.50;;
15096;SDS011;7649;52.084;7.478;2023-04-24T13:16:47;10.17;;;4.37;;
15096;SDS011;7649;52.084;7.478;2023-04-24T13:19:17;9.50;;;3.87;;
15096;SDS011;7649;52.084;7.478;2023-04-24T13:21:46;6.07;;;4.27;;
15096;SDS011;7649;52.084;7.478;2023-04-24T13:24:14;7.83;;;3.70;;
15096;SDS011;7649;52.084;7.478;2023-04-24T13:26:43;8.33;;;3.93;;
15096;SDS011;7649;52.084;7.478;2023-04-24T13:29:11;8.73;;;3.70;;
15096;SDS011;7649;52.084;7.478;2023-04-24T13:31:39;6.47;;;3.83;;
15096;SDS011;7649;52.084;7.478;2023-04-24T13:34:08;7.70;;;3.80;;
15096;SDS011;7649;52.084;7.478;2023-04-24T13:36:37;8.73;;;3.63;;
15096;SDS011;7649;52.084;7.478;2023-04-24T13:39:06;5.43;;;3.40;;
15096;SDS011;7649;52.084;7.478;2023-04-24T13:41:34;8.63;;;3.60;;
15096;SDS011;7649;52.084;7.478;2023-04-24T13:44:03;6.57;;;3.33;;
15096;SDS011;7649;52.084;7.478;2023-04-24T13:46:31;6.57;;;3.50;;
15096;SDS011;7649;52.084;7.478;2023-04-24T13:49:01;6.90;;;3.90;;
15096;SDS011;7649;52.084;7.478;2023-04-24T13:51:29;8.40;;;3.43;;
15096;SDS011;7649;52.084;7.478;2023-04-24T13:53:59;6.50;;;3.30;;
15096;SDS011;7649;52.084;7.478;2023-04-24T13:56:27;7.17;;;2.67;;
15096;SDS011;7649;52.084;7.478;2023-04-24T13:58:56;4.93;;;2.73;;
15096;SDS011;7649;52.084;7.478;2023-04-24T14:01:24;3.53;;;2.23;;
15096;SDS011;7649;52.084;7.478;2023-04-24T14:03:53;4.33;;;2.40;;
15096;SDS011;7649;52.084;7.478;2023-04-24T14:06:22;3.17;;;2.20;;
15096;SDS011;7649;52.084;7.478;2023-04-24T14:08:50;2.57;;;1.90;;
15096;SDS011;7649;52.084;7.478;2023-04-24T14:11:20;6.77;;;2.40;;
15096;SDS011;7649;52.084;7.478;2023-04-24T14:13:48;3.07;;;2.03;;
15096;SDS011;7649;52.084;7.478;2023-04-24T14:16:16;3.40;;;2.13;;
15096;SDS011;7649;52.084;7.478;2023-04-24T14:18:45;3.30;;;2.10;;
15096;SDS011;7649;52.084;7.478;2023-04-24T14:21:13;3.17;;;1.83;;
15096;SDS011;7649;52.084;7.478;2023-04-24T14:23:41;2.27;;;1.70;;
15096;SDS011;7649;52.084;7.478;2023-04-24T14:26:10;5.20;;;1.90;;
15096;SDS011;7649;52.084;7.478;2023-04-24T14:28:40;1.70;;;1.43;;
15096;SDS011;7649;52.084;7.478;2023-04-24T14:31:08;3.33;;;1.90;;
15096;SDS011;7649;52.084;7.478;2023-04-24T14:33:36;4.20;;;2.20;;
15096;SDS011;7649;52.084;7.478;2023-04-24T14:36:05;2.63;;;2.00;;
15096;SDS011;7649;52.084;7.478;2023-04-24T14:38:33;2.10;;;1.60;;
15096;SDS011;7649;52.084;7.478;2023-04-24T14:41:02;5.07;;;1.87;;
15096;SDS011;7649;52.084;7.478;2023-04-24T14:43:40;2.43;;;1.80;;
15096;SDS011;7649;52.084;7.478;2023-04-24T14:46:09;4.93;;;3.37;;
15096;SDS011;7649;52.084;7.478;2023-04-24T14:48:37;3.27;;;1.77;;
15096;SDS011;7649;52.084;7.478;2023-04-24T14:51:06;4.73;;;2.10;;
15096;SDS011;7649;52.084;7.478;2023-04-24T14:53:34;2.20;;;1.60;;
15096;SDS011;7649;52.084;7.478;2023-04-24T14:56:02;3.83;;;1.90;;
15096;SDS011;7649;52.084;7.478;2023-04-24T14:58:30;3.17;;;2.23;;
15096;SDS011;7649;52.084;7.478;2023-04-24T15:01:00;4.63;;;2.10;;
15096;SDS011;7649;52.084;7.478;2023-04-24T15:03:28;3.37;;;1.83;;
15096;SDS011;7649;52.084;7.478;2023-04-24T15:05:57;4.40;;;1.90;;
15096;SDS011;7649;52.084;7.478;2023-04-24T15:08:26;8.53;;;5.70;;
15096;SDS011;7649;52.084;7.478;2023-04-24T15:10:55;2.43;;;1.90;;
15096;SDS011;7649;52.084;7.478;2023-04-24T15:13:23;4.20;;;2.20;;
15096;SDS011;7649;52.084;7.478;2023-04-24T15:15:51;3.37;;;2.00;;
15096;SDS011;7649;52.084;7.478;2023-04-24T15:21:06;3.57;;;2.00;;
15096;SDS011;7649;52.084;7.478;2023-04-24T15:23:35;4.93;;;2.13;;
15096;SDS011;7649;52.084;7.478;2023-04-24T15:26:03;4.10;;;2.17;;